Time;durP1;ratioP1;P1;durP2;ratioP2;P2;SDS_P1;SDS_P2;PMS_P1;PMS_P2;Temp;Humidity;BMP_temperature;BMP_pressure;BME280_temperature;BME280_humidity;BME280_pressure;Samples;Min_cycle;Max_cycle;Signal;HPM_P1;HPM_P2
2023/07/14 00:01:21;;;;;;;6.00;2.45;;;;;;;;;;5026939;28;20521;-70
2023/07/14 00:03:48;;;;;;;2.30;1.63;;;;;;;;;;5028592;28;20067;-70
2023/07/14 00:06:14;;;;;;;3.25;1.90;;;;;;;;;;5028293;28;20057;-70
2023/07/14 00:08:40;;;;;;;3.50;1.67;;;;;;;;;;5028657;28;20062;-70
2023/07/14 00:11:21;;;;;;;2.88;1.85;;;;;;;;;;5028290;28;20075;-70
2023/07/14 00:13:49;;;;;;;3.25;1.90;;;;;;;;;;5028793;28;20570;-70
2023/07/14 00:16:23;;;;;;;5.25;2.00;;;;;;;;;;5028021;28;20044;-70
2023/07/14 00:18:48;;;;;;;3.65;1.88;;;;;;;;;;5028541;28;20037;-70
2023/07/14 00:21:16;;;;;;;4.65;2.03;;;;;;;;;;5033988;28;20102;-70
2023/07/14 00:23:41;;;;;;;3.00;2.05;;;;;;;;;;5036271;28;20021;-70
2023/07/14 00:26:19;;;;;;;6.93;2.10;;;;;;;;;;5030219;28;20031;-70
2023/07/14 00:28:45;;;;;;;4.55;1.92;;;;;;;;;;5036243;28;20037;-70
2023/07/14 00:31:14;;;;;;;4.10;1.73;;;;;;;;;;5039581;28;20042;-70
2023/07/14 00:33:39;;;;;;;3.35;1.92;;;;;;;;;;5032384;28;20033;-70
2023/07/14 00:36:06;;;;;;;3.55;2.03;;;;;;;;;;5026690;28;20064;-70
2023/07/14 00:38:32;;;;;;;3.67;2.47;;;;;;;;;;5027678;28;20478;-70
2023/07/14 00:40:58;;;;;;;3.17;1.80;;;;;;;;;;5028050;28;20049;-70
2023/07/14 00:43:25;;;;;;;3.38;1.80;;;;;;;;;;5030030;28;20585;-70
2023/07/14 00:45:53;;;;;;;4.22;1.75;;;;;;;;;;5038026;28;20060;-70
2023/07/14 00:48:20;;;;;;;4.28;2.00;;;;;;;;;;5027570;28;20069;-70
2023/07/14 00:50:54;;;;;;;2.85;2.25;;;;;;;;;;5027870;28;20028;-70
2023/07/14 00:53:37;;;;;;;4.78;2.28;;;;;;;;;;5027784;28;20024;-70
2023/07/14 00:56:08;;;;;;;5.22;2.17;;;;;;;;;;5027312;28;20036;-70
2023/07/14 00:58:34;;;;;;;3.90;2.10;;;;;;;;;;5027348;28;20075;-70
2023/07/14 01:01:10;;;;;;;4.65;2.28;;;;;;;;;;5026857;28;20053;-70
2023/07/14 01:03:44;;;;;;;5.13;2.00;;;;;;;;;;5026156;28;20033;-70
2023/07/14 01:06:32;;;;;;;6.00;1.83;;;;;;;;;;5027367;28;20052;-70
2023/07/14 01:09:08;;;;;;;4.20;2.00;;;;;;;;;;5027432;28;20069;-70
2023/07/14 01:11:39;;;;;;;6.20;2.33;;;;;;;;;;5026081;28;20025;-70
2023/07/14 01:14:10;;;;;;;4.90;2.10;;;;;;;;;;5027454;28;20029;-70
2023/07/14 01:16:38;;;;;;;4.88;2.28;;;;;;;;;;5025330;28;20043;-70
2023/07/14 01:19:12;;;;;;;6.65;2.28;;;;;;;;;;5026024;28;20052;-70
2023/07/14 01:21:39;;;;;;;4.97;2.20;;;;;;;;;;5035720;28;20544;-70
2023/07/14 01:24:15;;;;;;;4.22;2.38;;;;;;;;;;5029522;28;20075;-70
2023/07/14 01:26:57;;;;;;;5.35;2.53;;;;;;;;;;5021839;28;20030;-70
2023/07/14 01:29:23;;;;;;;5.95;1.95;;;;;;;;;;5027568;28;20021;-70
2023/07/14 01:31:49;;;;;;;5.40;2.05;;;;;;;;;;5026421;28;20045;-70
2023/07/14 01:34:15;;;;;;;4.13;2.25;;;;;;;;;;5025411;28;20124;-70
2023/07/14 01:36:42;;;;;;;6.90;2.45;;;;;;;;;;5026839;28;20645;-70
2023/07/14 01:39:08;;;;;;;4.82;2.13;;;;;;;;;;5026617;28;20041;-70
2023/07/14 01:41:33;;;;;;;5.63;2.13;;;;;;;;;;5018681;28;20176;-69
2023/07/14 01:44:03;;;;;;;4.28;2.60;;;;;;;;;;5023950;28;20104;-70
2023/07/14 01:46:28;;;;;;;7.40;2.67;;;;;;;;;;5011829;28;20030;-70
2023/07/14 01:49:01;;;;;;;3.70;2.20;;;;;;;;;;5026873;28;20721;-70
2023/07/14 01:51:35;;;;;;;3.92;2.58;;;;;;;;;;5027320;28;20033;-70
2023/07/14 01:54:05;;;;;;;4.55;2.45;;;;;;;;;;5028027;28;20120;-70
2023/07/14 01:56:32;;;;;;;5.72;2.63;;;;;;;;;;5035252;28;20025;-70
2023/07/14 01:59:14;;;;;;;6.25;2.45;;;;;;;;;;5041359;28;20018;-70
2023/07/14 02:01:42;;;;;;;4.78;2.20;;;;;;;;;;5018352;28;20040;-70
2023/07/14 02:04:16;;;;;;;5.38;2.63;;;;;;;;;;5027193;28;20033;-70
2023/07/14 02:06:41;;;;;;;4.40;2.40;;;;;;;;;;5026393;28;20648;-70
2023/07/14 02:09:14;;;;;;;3.30;2.35;;;;;;;;;;5026363;28;20506;-70
2023/07/14 02:11:43;;;;;;;4.40;2.60;;;;;;;;;;5026460;28;20026;-70
2023/07/14 02:14:16;;;;;;;5.97;2.78;;;;;;;;;;5026443;28;20510;-70
2023/07/14 02:16:42;;;;;;;4.03;2.08;;;;;;;;;;5025925;28;20051;-70
2023/07/14 02:19:17;;;;;;;4.53;2.30;;;;;;;;;;5026181;28;20589;-70
2023/07/14 02:21:43;;;;;;;5.72;2.65;;;;;;;;;;5034854;28;20039;-70
2023/07/14 02:24:18;;;;;;;5.75;2.88;;;;;;;;;;5029678;28;20599;-70
2023/07/14 02:26:45;;;;;;;4.28;2.70;;;;;;;;;;5025823;28;20029;-70
2023/07/14 02:29:11;;;;;;;5.88;2.42;;;;;;;;;;5026336;28;20084;-70
2023/07/14 02:31:41;;;;;;;6.30;2.72;;;;;;;;;;5025870;28;20029;-70
2023/07/14 02:34:11;;;;;;;7.00;3.20;;;;;;;;;;5025797;28;20038;-70
2023/07/14 02:37:02;;;;;;;8.38;3.20;;;;;;;;;;5024309;28;20432;-69
2023/07/14 02:39:35;;;;;;;8.80;3.30;;;;;;;;;;5017326;28;20117;-70
2023/07/14 02:42:02;;;;;;;8.85;3.67;;;;;;;;;;5024113;28;20037;-70
2023/07/14 02:44:31;;;;;;;7.43;3.25;;;;;;;;;;5028198;28;20017;-69
2023/07/14 02:47:03;;;;;;;8.18;3.67;;;;;;;;;;5037224;28;20166;-70
2023/07/14 02:49:28;;;;;;;7.03;3.10;;;;;;;;;;5019264;28;20116;-70
2023/07/14 02:51:53;;;;;;;7.70;3.53;;;;;;;;;;5025746;28;20154;-70
2023/07/14 02:54:19;;;;;;;7.88;3.50;;;;;;;;;;5036385;28;20667;-70
2023/07/14 02:56:44;;;;;;;7.00;3.42;;;;;;;;;;5025381;28;20407;-70
2023/07/14 02:59:12;;;;;;;9.15;3.70;;;;;;;;;;5027474;28;20024;-70
2023/07/14 03:01:37;;;;;;;8.07;3.67;;;;;;;;;;5018796;28;20029;-70
2023/07/14 03:04:03;;;;;;;6.38;3.53;;;;;;;;;;5041428;28;20412;-70
2023/07/14 03:06:29;;;;;;;6.15;3.53;;;;;;;;;;5024399;28;20045;-70
2023/07/14 03:08:54;;;;;;;8.00;3.60;;;;;;;;;;5038217;28;20041;-70
2023/07/14 03:11:19;;;;;;;7.93;3.75;;;;;;;;;;5025963;28;20026;-70
2023/07/14 03:13:48;;;;;;;7.82;3.58;;;;;;;;;;5025594;28;20423;-70
2023/07/14 03:16:14;;;;;;;9.88;4.03;;;;;;;;;;5026133;28;20030;-70
2023/07/14 03:18:39;;;;;;;5.95;3.63;;;;;;;;;;5030179;28;20034;-70
2023/07/14 03:21:05;;;;;;;5.80;3.40;;;;;;;;;;5031790;28;20040;-70
2023/07/14 03:23:32;;;;;;;8.05;3.90;;;;;;;;;;5037257;28;20021;-69
2023/07/14 03:26:03;;;;;;;7.50;3.85;;;;;;;;;;5041629;28;20045;-70
2023/07/14 03:28:29;;;;;;;7.53;4.03;;;;;;;;;;5031601;28;20060;-70
2023/07/14 03:30:54;;;;;;;7.63;3.60;;;;;;;;;;5029390;28;20053;-70
2023/07/14 03:33:20;;;;;;;6.63;3.50;;;;;;;;;;5029132;28;20030;-70
2023/07/14 03:35:45;;;;;;;10.80;4.10;;;;;;;;;;5028482;28;20060;-70
2023/07/14 03:38:10;;;;;;;10.52;3.90;;;;;;;;;;5029505;28;20037;-70
2023/07/14 03:40:36;;;;;;;9.48;4.07;;;;;;;;;;5027022;28;20045;-70
2023/07/14 03:43:04;;;;;;;6.65;3.50;;;;;;;;;;5028798;28;20088;-70
2023/07/14 03:45:31;;;;;;;6.68;3.70;;;;;;;;;;5011369;28;20034;-70
2023/07/14 03:47:56;;;;;;;8.10;3.80;;;;;;;;;;5026645;28;20033;-70
2023/07/14 03:50:22;;;;;;;11.80;3.72;;;;;;;;;;5027398;28;20025;-70
2023/07/14 03:52:47;;;;;;;7.85;3.55;;;;;;;;;;5039829;28;20033;-70
2023/07/14 03:55:12;;;;;;;6.70;3.53;;;;;;;;;;5030549;28;20060;-70
2023/07/14 03:57:38;;;;;;;6.85;3.45;;;;;;;;;;5027290;28;20459;-70
2023/07/14 04:00:16;;;;;;;8.90;3.95;;;;;;;;;;5028223;28;20593;-70
2023/07/14 04:02:42;;;;;;;7.38;3.47;;;;;;;;;;5028486;28;20038;-70
2023/07/14 04:05:09;;;;;;;8.73;3.50;;;;;;;;;;5028839;28;20022;-70
2023/07/14 04:07:35;;;;;;;8.30;3.40;;;;;;;;;;5035043;28;20612;-70
2023/07/14 04:10:02;;;;;;;8.40;3.90;;;;;;;;;;5032948;28;20033;-70
2023/07/14 04:12:27;;;;;;;8.10;3.83;;;;;;;;;;5028419;28;20034;-70
2023/07/14 04:14:53;;;;;;;8.52;3.70;;;;;;;;;;5028088;28;20152;-70
2023/07/14 04:17:18;;;;;;;8.27;3.78;;;;;;;;;;5027930;28;20026;-70
2023/07/14 04:19:44;;;;;;;5.75;3.45;;;;;;;;;;5026908;28;20437;-70
2023/07/14 04:22:09;;;;;;;9.63;3.80;;;;;;;;;;5028060;28;20083;-70
2023/07/14 04:24:35;;;;;;;7.90;3.83;;;;;;;;;;5028262;28;20048;-70
2023/07/14 04:27:00;;;;;;;8.38;3.78;;;;;;;;;;5027642;28;20515;-70
2023/07/14 04:29:26;;;;;;;8.00;3.67;;;;;;;;;;5028695;28;20104;-70
2023/07/14 04:31:51;;;;;;;9.98;3.80;;;;;;;;;;5026923;28;20068;-70
2023/07/14 04:34:16;;;;;;;7.95;3.85;;;;;;;;;;5027678;28;20553;-70
2023/07/14 04:36:44;;;;;;;9.63;3.50;;;;;;;;;;5028301;28;20065;-70
2023/07/14 04:39:11;;;;;;;8.50;3.67;;;;;;;;;;5027755;28;20041;-70
2023/07/14 04:41:37;;;;;;;10.15;3.97;;;;;;;;;;5028085;28;20026;-70
2023/07/14 04:44:08;;;;;;;9.23;3.53;;;;;;;;;;5029013;28;20056;-70
2023/07/14 04:46:34;;;;;;;8.35;3.60;;;;;;;;;;5028773;28;20041;-70
2023/07/14 04:48:59;;;;;;;8.60;3.92;;;;;;;;;;5031261;28;20480;-70
2023/07/14 04:51:24;;;;;;;6.22;3.28;;;;;;;;;;5040221;28;20034;-70
2023/07/14 04:53:50;;;;;;;8.35;3.40;;;;;;;;;;5040473;28;20025;-70
2023/07/14 04:56:15;;;;;;;9.90;3.22;;;;;;;;;;5030261;28;20450;-70
2023/07/14 04:58:40;;;;;;;7.63;3.33;;;;;;;;;;5028161;28;20725;-70
2023/07/14 05:01:06;;;;;;;8.82;3.55;;;;;;;;;;5027681;28;20029;-70
2023/07/14 05:03:31;;;;;;;6.60;3.08;;;;;;;;;;5027534;28;20033;-70
2023/07/14 05:05:56;;;;;;;8.98;3.90;;;;;;;;;;5027411;28;20045;-70
2023/07/14 05:08:22;;;;;;;6.43;3.10;;;;;;;;;;5028018;28;20021;-70
2023/07/14 05:10:47;;;;;;;6.72;3.30;;;;;;;;;;5026884;28;20079;-70
2023/07/14 05:13:13;;;;;;;8.40;3.42;;;;;;;;;;5027578;28;20029;-70
2023/07/14 05:15:43;;;;;;;8.40;3.30;;;;;;;;;;5025875;28;20587;-70
2023/07/14 05:18:08;;;;;;;6.82;3.45;;;;;;;;;;5027160;28;20030;-70
2023/07/14 05:20:33;;;;;;;7.63;3.10;;;;;;;;;;5026555;28;20083;-70
2023/07/14 05:22:59;;;;;;;10.13;3.33;;;;;;;;;;5026099;28;20061;-70
2023/07/14 05:25:24;;;;;;;6.50;3.00;;;;;;;;;;5026028;28;20549;-70
2023/07/14 05:27:50;;;;;;;6.45;3.17;;;;;;;;;;5024330;28;20038;-69
2023/07/14 05:30:18;;;;;;;6.50;3.08;;;;;;;;;;5047056;28;20029;-70
2023/07/14 05:32:45;;;;;;;6.72;3.20;;;;;;;;;;5025275;28;20029;-70
2023/07/14 05:35:11;;;;;;;11.13;3.00;;;;;;;;;;5026660;28;20028;-70
2023/07/14 05:37:37;;;;;;;6.22;3.17;;;;;;;;;;5026613;28;20036;-70
2023/07/14 05:40:08;;;;;;;6.35;2.88;;;;;;;;;;5026113;28;20034;-70
2023/07/14 05:42:33;;;;;;;9.35;3.08;;;;;;;;;;5026400;28;20034;-70
2023/07/14 05:44:59;;;;;;;6.50;3.25;;;;;;;;;;5026519;28;20040;-70
2023/07/14 05:47:24;;;;;;;8.73;3.20;;;;;;;;;;5026913;28;20032;-70
2023/07/14 05:49:50;;;;;;;5.47;2.67;;;;;;;;;;5023100;28;20463;-70
2023/07/14 05:52:15;;;;;;;8.55;2.90;;;;;;;;;;5026567;28;20030;-70
2023/07/14 05:54:41;;;;;;;6.68;2.97;;;;;;;;;;5026175;28;20554;-70
2023/07/14 05:57:06;;;;;;;7.47;3.15;;;;;;;;;;5026367;28;20032;-70
2023/07/14 05:59:32;;;;;;;8.10;3.63;;;;;;;;;;5026223;28;20056;-70
2023/07/14 06:01:57;;;;;;;12.30;3.10;;;;;;;;;;5026501;28;20045;-70
2023/07/14 06:04:23;;;;;;;7.70;2.97;;;;;;;;;;5024762;28;20039;-70
2023/07/14 06:06:48;;;;;;;7.07;2.95;;;;;;;;;;5019161;28;20057;-69
2023/07/14 06:09:14;;;;;;;9.15;3.10;;;;;;;;;;5014441;28;20038;-70
2023/07/14 06:11:40;;;;;;;7.30;2.75;;;;;;;;;;5023098;28;20026;-70
2023/07/14 06:14:05;;;;;;;8.65;3.10;;;;;;;;;;5028209;28;20036;-70
2023/07/14 06:16:31;;;;;;;5.95;3.13;;;;;;;;;;5032009;28;20061;-70
2023/07/14 06:18:56;;;;;;;8.48;3.10;;;;;;;;;;5037998;28;20037;-70
2023/07/14 06:21:21;;;;;;;9.05;2.60;;;;;;;;;;5031658;28;20026;-70
2023/07/14 06:23:47;;;;;;;8.20;2.58;;;;;;;;;;5017082;28;20041;-69
2023/07/14 06:26:12;;;;;;;6.15;2.88;;;;;;;;;;5019051;28;20025;-69
2023/07/14 06:28:38;;;;;;;6.18;3.22;;;;;;;;;;5024282;28;20029;-70
2023/07/14 06:31:05;;;;;;;9.32;2.85;;;;;;;;;;5024285;28;20034;-69
2023/07/14 06:33:31;;;;;;;6.07;2.95;;;;;;;;;;5025658;28;20045;-70
2023/07/14 06:35:57;;;;;;;6.63;2.97;;;;;;;;;;5023928;28;20507;-70
2023/07/14 06:38:23;;;;;;;9.68;2.90;;;;;;;;;;5024121;28;20036;-70
2023/07/14 06:41:03;;;;;;;6.85;2.47;;;;;;;;;;5024516;28;20136;-70
2023/07/14 06:43:31;;;;;;;8.05;2.58;;;;;;;;;;5024910;28;20051;-70
2023/07/14 06:45:56;;;;;;;7.05;3.15;;;;;;;;;;5017314;28;20037;-70
2023/07/14 06:48:24;;;;;;;6.82;2.83;;;;;;;;;;5021602;28;20037;-69
2023/07/14 06:50:50;;;;;;;8.27;2.50;;;;;;;;;;5021751;28;20041;-70
2023/07/14 06:53:16;;;;;;;4.50;2.50;;;;;;;;;;5022848;28;20040;-70
2023/07/14 06:55:43;;;;;;;6.18;2.63;;;;;;;;;;5020012;28;20041;-70
2023/07/14 06:58:09;;;;;;;10.70;3.05;;;;;;;;;;5023598;28;20057;-70
2023/07/14 07:00:34;;;;;;;7.57;2.92;;;;;;;;;;5023808;28;20566;-70
2023/07/14 07:03:00;;;;;;;10.50;2.70;;;;;;;;;;5023940;28;20041;-69
2023/07/14 07:05:26;;;;;;;5.90;2.53;;;;;;;;;;5022313;28;20028;-70
2023/07/14 07:07:53;;;;;;;7.45;2.40;;;;;;;;;;5055406;28;20139;-70
2023/07/14 07:10:18;;;;;;;6.25;2.33;;;;;;;;;;5021221;28;20580;-70
2023/07/14 07:12:44;;;;;;;6.30;2.40;;;;;;;;;;5023014;28;20033;-70
2023/07/14 07:15:10;;;;;;;8.02;2.22;;;;;;;;;;5010003;28;20037;-70
2023/07/14 07:17:38;;;;;;;9.38;2.35;;;;;;;;;;5020639;28;20088;-70
2023/07/14 07:20:08;;;;;;;4.60;1.98;;;;;;;;;;5023076;28;20128;-69
2023/07/14 07:22:36;;;;;;;4.20;1.95;;;;;;;;;;5014974;28;20032;-69
2023/07/14 07:25:03;;;;;;;4.63;2.13;;;;;;;;;;5017041;28;20491;-69
2023/07/14 07:27:28;;;;;;;3.15;1.98;;;;;;;;;;5020153;28;20037;-69
2023/07/14 07:29:54;;;;;;;5.47;2.35;;;;;;;;;;5023551;28;20035;-69
2023/07/14 07:32:20;;;;;;;6.18;2.13;;;;;;;;;;5024021;28;20030;-69
2023/07/14 07:34:45;;;;;;;3.75;1.92;;;;;;;;;;5023525;28;20407;-69
2023/07/14 07:37:11;;;;;;;6.20;2.00;;;;;;;;;;5024252;28;20577;-69
2023/07/14 07:39:37;;;;;;;7.10;2.05;;;;;;;;;;5024331;28;20029;-69
2023/07/14 07:42:04;;;;;;;4.45;2.22;;;;;;;;;;5026084;28;20037;-69
2023/07/14 07:44:30;;;;;;;4.40;1.80;;;;;;;;;;5037433;28;20582;-69
2023/07/14 07:46:55;;;;;;;6.25;2.33;;;;;;;;;;5040078;28;20038;-70
2023/07/14 07:49:20;;;;;;;6.35;2.25;;;;;;;;;;5028414;28;20030;-69
2023/07/14 07:51:46;;;;;;;7.05;2.33;;;;;;;;;;5025224;28;20060;-69
2023/07/14 07:54:11;;;;;;;5.63;2.30;;;;;;;;;;5018668;28;20057;-69
2023/07/14 07:56:38;;;;;;;5.15;2.30;;;;;;;;;;5019505;28;20060;-69
2023/07/14 07:59:05;;;;;;;4.90;2.30;;;;;;;;;;5022952;28;20046;-69
2023/07/14 08:01:30;;;;;;;8.02;2.42;;;;;;;;;;5022582;28;20038;-69
2023/07/14 08:03:56;;;;;;;5.13;2.50;;;;;;;;;;5024692;28;20037;-70
2023/07/14 08:06:21;;;;;;;6.82;2.60;;;;;;;;;;5022064;28;20667;-69
2023/07/14 08:08:48;;;;;;;7.57;2.22;;;;;;;;;;5012656;28;20675;-69
2023/07/14 08:11:14;;;;;;;7.05;2.85;;;;;;;;;;5018594;28;20037;-69
2023/07/14 08:13:40;;;;;;;6.70;2.55;;;;;;;;;;5026325;28;20033;-69
2023/07/14 08:16:05;;;;;;;4.15;2.25;;;;;;;;;;5024733;28;20046;-70
2023/07/14 08:18:31;;;;;;;5.18;2.20;;;;;;;;;;5017537;28;20048;-70
2023/07/14 08:20:58;;;;;;;6.30;2.58;;;;;;;;;;5019446;28;20609;-69
2023/07/14 08:23:24;;;;;;;7.90;2.30;;;;;;;;;;5040075;28;20037;-69
2023/07/14 08:25:52;;;;;;;3.88;2.25;;;;;;;;;;5026287;28;20056;-69
2023/07/14 08:28:17;;;;;;;5.20;2.63;;;;;;;;;;5030745;28;20061;-69
2023/07/14 08:30:46;;;;;;;4.25;2.05;;;;;;;;;;5043608;28;20037;-69
2023/07/14 08:33:11;;;;;;;5.03;2.55;;;;;;;;;;5046029;28;20124;-69
2023/07/14 08:35:37;;;;;;;5.25;1.98;;;;;;;;;;5046473;28;20162;-69
2023/07/14 08:38:02;;;;;;;5.90;2.00;;;;;;;;;;5047521;28;20025;-69
2023/07/14 08:40:31;;;;;;;4.05;2.10;;;;;;;;;;5050858;28;20044;-69
2023/07/14 08:43:47;;;;;;;3.40;1.70;;;;;;;;;;5030523;28;20090;-69
2023/07/14 08:46:41;;;;;;;4.53;2.10;;;;;;;;;;4994830;28;20037;-70
2023/07/14 08:49:12;;;;;;;;;;;;;;;;;;4990427;28;20128;-70
2023/07/14 08:51:44;;;;;;;5.68;2.00;;;;;;;;;;5018125;28;19921;-69
2023/07/14 08:54:16;;;;;;;3.38;2.05;;;;;;;;;;5026029;28;20041;-70
2023/07/14 08:56:41;;;;;;;4.75;2.03;;;;;;;;;;5026248;28;20022;-69
2023/07/14 08:59:26;;;;;;;3.40;1.98;;;;;;;;;;5020689;28;20415;-69
2023/07/14 09:01:56;;;;;;;5.43;2.42;;;;;;;;;;4991047;28;20046;-69
2023/07/14 09:04:29;;;;;;;7.60;2.30;;;;;;;;;;4938914;28;20137;-68
2023/07/14 09:06:54;;;;;;;;;;;;;;;;;;4991857;28;20215;-68
2023/07/14 09:09:30;;;;;;;3.47;2.20;;;;;;;;;;5027137;28;20552;-68
2023/07/14 09:12:04;;;;;;;6.38;2.00;;;;;;;;;;5036924;28;20087;-68
2023/07/14 09:14:43;;;;;;;5.03;1.92;;;;;;;;;;5021193;28;20036;-68
2023/07/14 09:17:13;;;;;;;3.38;1.95;;;;;;;;;;5015585;28;20709;-68
2023/07/14 09:20:13;;;;;;;2.92;1.88;;;;;;;;;;5013869;28;20106;-68
2023/07/14 09:23:05;;;;;;;6.22;2.20;;;;;;;;;;5018885;28;20400;-68
2023/07/14 09:25:42;;;;;;;10.40;4.93;;;;;;;;;;5024924;28;20507;-68
2023/07/14 09:28:33;;;;;;;4.07;2.50;;;;;;;;;;5017564;28;20522;-68
2023/07/14 09:31:05;;;;;;;8.25;3.08;;;;;;;;;;5020907;28;20045;-68
2023/07/14 09:33:43;;;;;;;13.65;6.45;;;;;;;;;;5021553;28;20842;-68
2023/07/14 09:36:10;;;;;;;11.77;7.10;;;;;;;;;;5009817;28;20045;-68
2023/07/14 09:38:57;;;;;;;7.15;3.20;;;;;;;;;;5024641;28;20055;-68
2023/07/14 09:41:25;;;;;;;7.80;4.25;;;;;;;;;;5013754;28;20124;-68
2023/07/14 09:43:57;;;;;;;5.55;3.47;;;;;;;;;;5019179;28;20091;-68
2023/07/14 09:46:22;;;;;;;4.43;2.10;;;;;;;;;;5012309;28;20034;-68
2023/07/14 09:48:51;;;;;;;5.93;2.85;;;;;;;;;;5025036;28;20037;-68
2023/07/14 09:51:23;;;;;;;4.45;2.08;;;;;;;;;;5024986;28;20649;-68
2023/07/14 09:54:07;;;;;;;3.35;2.30;;;;;;;;;;5037181;28;20041;-68
2023/07/14 09:56:37;;;;;;;5.95;3.00;;;;;;;;;;5024635;28;20026;-69
2023/07/14 09:59:05;;;;;;;5.25;3.30;;;;;;;;;;5022993;28;20044;-68
2023/07/14 10:01:31;;;;;;;6.53;3.00;;;;;;;;;;5024689;28;20041;-68
2023/07/14 10:04:06;;;;;;;7.40;2.25;;;;;;;;;;5024692;28;20037;-68
2023/07/14 10:06:31;;;;;;;3.90;2.00;;;;;;;;;;5018024;28;20401;-68
2023/07/14 10:09:08;;;;;;;3.45;1.80;;;;;;;;;;5029928;28;20048;-68
2023/07/14 10:11:41;;;;;;;4.28;2.28;;;;;;;;;;5009020;28;20033;-68
2023/07/14 10:14:27;;;;;;;4.57;2.33;;;;;;;;;;5015881;28;20123;-68
2023/07/14 10:16:56;;;;;;;5.00;3.25;;;;;;;;;;5021760;28;20041;-68
2023/07/14 10:19:31;;;;;;;5.43;3.22;;;;;;;;;;5022506;28;20046;-68
2023/07/14 10:22:02;;;;;;;4.20;2.40;;;;;;;;;;5012251;28;20037;-68
2023/07/14 10:24:28;;;;;;;3.88;2.00;;;;;;;;;;5023352;28;20037;-68
2023/07/14 10:27:00;;;;;;;3.17;2.00;;;;;;;;;;5051199;28;20098;-68
2023/07/14 10:29:42;;;;;;;3.67;2.00;;;;;;;;;;5020045;28;20083;-68
2023/07/14 10:32:26;;;;;;;5.50;2.53;;;;;;;;;;5020538;28;20049;-68
2023/07/14 10:34:51;;;;;;;7.18;2.28;;;;;;;;;;5015329;28;20037;-68
2023/07/14 10:37:26;;;;;;;4.63;1.90;;;;;;;;;;5022526;28;20041;-68
2023/07/14 10:40:09;;;;;;;5.82;2.00;;;;;;;;;;5034005;28;20041;-68
2023/07/14 10:42:37;;;;;;;4.22;2.30;;;;;;;;;;5029362;28;20033;-68
2023/07/14 10:45:02;;;;;;;7.85;2.72;;;;;;;;;;5023817;28;20029;-68
2023/07/14 10:47:36;;;;;;;4.70;2.50;;;;;;;;;;5024853;28;20083;-68
2023/07/14 10:50:16;;;;;;;3.35;2.15;;;;;;;;;;5024102;28;20045;-68
2023/07/14 10:52:45;;;;;;;3.38;2.10;;;;;;;;;;5033089;28;20033;-68
2023/07/14 10:55:28;;;;;;;3.58;2.17;;;;;;;;;;5000359;28;20442;-69
2023/07/14 10:58:00;;;;;;;5.22;2.78;;;;;;;;;;5021781;28;20030;-68
2023/07/14 11:00:35;;;;;;;3.78;2.17;;;;;;;;;;5010590;28;20038;-68
2023/07/14 11:03:38;;;;;;;4.40;2.08;;;;;;;;;;5019844;28;20180;-68
2023/07/14 11:06:19;;;;;;;3.58;2.13;;;;;;;;;;5018600;28;20045;-68
2023/07/14 11:08:51;;;;;;;4.30;2.20;;;;;;;;;;5014306;28;20029;-68
2023/07/14 11:11:46;;;;;;;5.68;2.08;;;;;;;;;;5013006;28;20571;-68
2023/07/14 11:14:23;;;;;;;4.65;2.50;;;;;;;;;;5035738;28;20068;-68
2023/07/14 11:16:55;;;;;;;3.85;2.30;;;;;;;;;;5035433;28;20041;-68
2023/07/14 11:19:53;;;;;;;4.47;2.30;;;;;;;;;;5042483;28;20451;-68
2023/07/14 11:22:47;;;;;;;3.30;1.95;;;;;;;;;;5030621;28;20906;-68
2023/07/14 11:25:29;;;;;;;5.20;2.30;;;;;;;;;;5039437;28;20071;-68
2023/07/14 11:27:59;;;;;;;3.85;1.90;;;;;;;;;;5032450;28;20069;-68
2023/07/14 11:30:33;;;;;;;5.40;2.20;;;;;;;;;;5019861;28;20033;-68
2023/07/14 11:33:24;;;;;;;4.63;2.00;;;;;;;;;;5023433;28;20036;-68
2023/07/14 11:35:57;;;;;;;4.13;2.33;;;;;;;;;;5005487;28;20084;-68
2023/07/14 11:38:51;;;;;;;7.20;2.33;;;;;;;;;;5022458;28;20038;-68
2023/07/14 11:41:18;;;;;;;3.40;2.00;;;;;;;;;;5022026;28;20426;-68
2023/07/14 11:46:27;;;;;;;;;;;;;;;;;;4987387;28;21636;-68
2023/07/14 11:48:52;;;;;;;4.85;2.45;;;;;;;;;;5011481;28;19921;-68
2023/07/14 11:51:19;;;;;;;5.13;2.20;;;;;;;;;;5042425;28;20057;-68
2023/07/14 11:54:15;;;;;;;3.30;2.17;;;;;;;;;;5025334;28;20473;-68
2023/07/14 11:56:43;;;;;;;5.15;2.53;;;;;;;;;;5026715;28;20038;-68
2023/07/14 11:59:19;;;;;;;3.85;2.08;;;;;;;;;;5023303;28;20039;-68
2023/07/14 12:01:53;;;;;;;3.97;2.08;;;;;;;;;;5018224;28;20511;-68
2023/07/14 12:04:29;;;;;;;6.55;2.88;;;;;;;;;;5030175;28;20048;-68
2023/07/14 12:07:10;;;;;;;5.60;2.30;;;;;;;;;;5014480;28;20273;-69
2023/07/14 12:09:56;;;;;;;4.00;2.40;;;;;;;;;;5015865;28;20072;-69
2023/07/14 12:12:23;;;;;;;3.70;2.50;;;;;;;;;;5020794;28;20446;-69
2023/07/14 12:14:50;;;;;;;5.10;2.60;;;;;;;;;;5022316;28;20545;-69
2023/07/14 12:17:40;;;;;;;6.38;3.17;;;;;;;;;;5026680;28;20030;-69
2023/07/14 12:20:12;;;;;;;3.63;2.63;;;;;;;;;;5025389;28;20037;-69
2023/07/14 12:22:49;;;;;;;4.68;2.55;;;;;;;;;;5025029;28;20037;-69
2023/07/14 12:25:19;;;;;;;9.30;3.67;;;;;;;;;;5024420;28;20519;-69
2023/07/14 12:27:50;;;;;;;4.28;2.63;;;;;;;;;;5025311;28;20225;-70
2023/07/14 12:30:28;;;;;;;7.75;2.70;;;;;;;;;;5024926;28;20056;-69
2023/07/14 12:33:34;;;;;;;6.38;2.67;;;;;;;;;;5022670;28;20061;-69
2023/07/14 12:36:03;;;;;;;3.83;2.55;;;;;;;;;;5020230;28;20144;-69
2023/07/14 12:38:30;;;;;;;5.82;2.38;;;;;;;;;;5022427;28;20036;-69
2023/07/14 12:40:56;;;;;;;3.38;2.42;;;;;;;;;;5024758;28;20041;-69
2023/07/14 12:43:30;;;;;;;4.78;2.53;;;;;;;;;;5023245;28;20040;-69
2023/07/14 12:45:57;;;;;;;7.40;2.70;;;;;;;;;;5020237;28;20204;-69
2023/07/14 12:48:28;;;;;;;3.70;2.47;;;;;;;;;;5023246;28;20022;-69
2023/07/14 12:50:55;;;;;;;2.65;2.00;;;;;;;;;;5025473;28;20052;-69
2023/07/14 12:53:20;;;;;;;3.83;2.30;;;;;;;;;;5020993;28;20044;-69
2023/07/14 12:55:46;;;;;;;4.30;2.30;;;;;;;;;;5021104;28;20045;-69
2023/07/14 12:58:24;;;;;;;5.15;2.42;;;;;;;;;;5023342;28;20120;-69
2023/07/14 13:00:56;;;;;;;5.30;2.17;;;;;;;;;;5025113;28;21062;-69
2023/07/14 13:03:24;;;;;;;4.90;2.57;;;;;;;;;;5024857;28;20498;-69
2023/07/14 13:05:51;;;;;;;3.70;2.30;;;;;;;;;;5017697;28;20053;-69
2023/07/14 13:08:28;;;;;;;3.92;2.33;;;;;;;;;;5015628;28;20048;-69
2023/07/14 13:10:55;;;;;;;4.00;2.22;;;;;;;;;;5018687;28;20475;-69
2023/07/14 13:13:25;;;;;;;3.92;2.40;;;;;;;;;;5019075;28;20772;-69
2023/07/14 13:15:51;;;;;;;4.05;2.53;;;;;;;;;;5023274;28;20419;-69
2023/07/14 13:18:36;;;;;;;5.38;2.72;;;;;;;;;;5018543;28;20053;-69
2023/07/14 13:21:24;;;;;;;4.28;2.67;;;;;;;;;;5017537;28;20407;-69
2023/07/14 13:23:54;;;;;;;4.50;3.50;;;;;;;;;;5005359;28;20053;-69
2023/07/14 13:32:25;;;;;;;9.23;2.60;;;;;;;;;;4997507;23;20047;-96
2023/07/14 13:34:55;;;;;;;4.22;2.65;;;;;;;;;;4975306;28;20034;-96
2023/07/14 13:37:21;;;;;;;4.32;2.60;;;;;;;;;;4974724;28;20350;-95
2023/07/14 13:39:57;;;;;;;4.68;2.13;;;;;;;;;;4975487;28;20476;-96
2023/07/14 13:42:29;;;;;;;6.82;3.17;;;;;;;;;;4992327;28;20478;-96
2023/07/14 13:44:59;;;;;;;5.50;2.45;;;;;;;;;;4974894;28;20523;-96
2023/07/14 13:47:30;;;;;;;4.82;2.70;;;;;;;;;;4974966;28;20389;-96
2023/07/14 13:49:57;;;;;;;8.57;2.72;;;;;;;;;;4974434;28;20058;-96
2023/07/14 13:55:47;;;;;;;4.20;2.33;;;;;;;;;;4975730;28;20045;-96
2023/07/14 13:58:13;;;;;;;5.03;2.47;;;;;;;;;;4975063;28;20042;-96
2023/07/14 14:00:39;;;;;;;3.90;2.67;;;;;;;;;;4975330;28;20041;-96
2023/07/14 14:03:06;;;;;;;4.18;2.42;;;;;;;;;;4974826;28;20043;-96
2023/07/14 14:05:37;;;;;;;4.22;2.33;;;;;;;;;;4968437;28;20042;-96
2023/07/14 14:08:04;;;;;;;4.72;2.50;;;;;;;;;;4974395;28;20101;-95
2023/07/14 14:10:30;;;;;;;4.70;2.33;;;;;;;;;;4971252;28;20492;-96
2023/07/14 14:13:00;;;;;;;7.55;2.40;;;;;;;;;;4974272;28;20034;-96
2023/07/14 14:15:32;;;;;;;3.53;2.20;;;;;;;;;;4974989;28;20495;-96
2023/07/14 14:18:03;;;;;;;4.20;2.70;;;;;;;;;;4974576;28;20026;-96
2023/07/14 14:20:32;;;;;;;3.67;2.38;;;;;;;;;;4974884;28;20045;-96
2023/07/14 14:23:05;;;;;;;3.70;2.15;;;;;;;;;;4974875;28;20042;-96
2023/07/14 14:25:30;;;;;;;;;;;;;;;;;;4991765;28;20469;-96
2023/07/14 14:27:57;;;;;;;3.50;2.40;;;;;;;;;;4975562;28;19921;-96
2023/07/14 14:30:31;;;;;;;8.07;2.47;;;;;;;;;;4993458;28;20054;-96
2023/07/14 14:32:58;;;;;;;4.20;2.50;;;;;;;;;;4978549;28;20497;-96
2023/07/14 14:35:32;;;;;;;3.03;2.30;;;;;;;;;;4998174;28;20043;-96
2023/07/14 14:38:00;;;;;;;4.40;2.20;;;;;;;;;;4983495;28;20030;-96
2023/07/14 14:40:29;;;;;;;4.45;2.42;;;;;;;;;;4982761;28;20493;-96
2023/07/14 14:43:12;;;;;;;5.70;2.70;;;;;;;;;;4973802;28;20031;-96
2023/07/14 14:45:37;;;;;;;;;;;;;;;;;;4977162;28;20477;-96
2023/07/14 14:48:17;;;;;;;5.20;2.20;;;;;;;;;;4971322;28;19951;-96
2023/07/14 14:50:45;;;;;;;5.32;2.30;;;;;;;;;;4982335;28;20129;-96
2023/07/14 14:53:18;;;;;;;3.00;2.33;;;;;;;;;;4975418;28;20039;-96
2023/07/14 14:56:33;;;;;;;3.63;2.30;;;;;;;;;;4968014;28;20485;-96
2023/07/14 14:59:07;;;;;;;5.40;2.03;;;;;;;;;;4976869;28;20034;-96
2023/07/14 15:06:44;;;;;;;4.25;1.80;;;;;;;;;;4898255;29;20040;-96
2023/07/14 15:09:58;;;;;;;;;;;;;;;;;;;;;
2023/07/14 15:22:59;;;;;;;2.10;1.90;;;;;;;;;;4875071;29;20399;-96
2023/07/14 15:25:32;;;;;;;3.80;2.33;;;;;;;;;;4907828;29;20096;-96
2023/07/14 15:28:04;;;;;;;;;;;;;;;;;;4947731;28;20040;-96
2023/07/14 15:34:00;;;;;;;;;;;;;;;;;;;;;
2023/07/14 15:40:57;;;;;;;3.80;2.13;;;;;;;;;;4959567;28;20155;-96